Time;durP1;ratioP1;P1;durP2;ratioP2;P2;SDS_P1;SDS_P2;PMS_P1;PMS_P2;Temp;Humidity;BMP_temperature;BMP_pressure;BME280_temperature;BME280_humidity;BME280_pressure;Samples;Min_cycle;Max_cycle;Signal;HPM_P1;HPM_P2
2022/06/01 00:02:16;;;;;;;3.90;3.60;;;15.30;99.90;16.50;96596.00;;;;5010120;28;20209;-66
2022/06/01 00:05:06;;;;;;;3.73;3.43;;;15.50;99.90;16.80;96605.00;;;;5010812;28;20237;-66
2022/06/01 00:07:55;;;;;;;4.47;2.90;;;15.30;99.90;16.60;96605.00;;;;5010671;28;20210;-67
2022/06/01 00:10:44;;;;;;;5.67;3.67;;;15.50;99.90;16.60;96614.00;;;;5010917;28;20202;-66
2022/06/01 00:13:34;;;;;;;4.00;3.47;;;15.40;99.90;16.70;96613.00;;;;5010260;28;20237;-67
2022/06/01 00:16:23;;;;;;;5.30;3.87;;;15.50;99.90;16.90;96622.00;;;;5010387;28;20205;-66
2022/06/01 00:19:12;;;;;;;11.07;4.10;;;15.40;99.90;17.00;96624.00;;;;5014976;28;20201;-67
2022/06/01 00:22:14;;;;;;;6.20;3.20;;;15.40;99.90;17.10;96633.00;;;;5011719;28;20206;-66
2022/06/01 00:25:04;;;;;;;4.53;3.27;;;15.60;99.90;17.00;96621.00;;;;5011261;28;20315;-66
2022/06/01 00:27:53;;;;;;;2.97;2.77;;;15.50;99.90;17.00;96624.00;;;;5010174;28;20205;-67
2022/06/01 00:30:43;;;;;;;5.77;3.23;;;15.70;99.90;17.10;96619.00;;;;5010404;28;20225;-66
2022/06/01 00:33:32;;;;;;;3.20;2.90;;;15.80;99.90;17.20;96618.00;;;;5010704;28;20217;-66
2022/06/01 00:36:21;;;;;;;2.87;2.67;;;15.60;99.90;17.30;96597.00;;;;5010037;28;20209;-66
2022/06/01 00:39:09;;;;;;;2.47;2.10;;;15.70;99.90;16.90;96602.00;;;;5009352;28;20213;-66
2022/06/01 00:42:12;;;;;;;2.17;1.97;;;15.70;99.90;17.30;96598.00;;;;5009922;28;20224;-64
2022/06/01 00:45:01;;;;;;;2.40;2.20;;;16.00;99.90;17.10;96601.00;;;;5009386;28;20217;-66
2022/06/01 00:47:51;;;;;;;3.37;2.07;;;15.90;99.90;17.10;96610.00;;;;5009709;28;20202;-67
2022/06/01 00:50:41;;;;;;;3.13;1.70;;;15.80;99.90;17.30;96606.00;;;;5010127;28;20217;-67
2022/06/01 00:53:35;;;;;;;1.53;1.43;;;15.90;99.90;17.30;96606.00;;;;5009465;28;20225;-66
2022/06/01 00:56:29;;;;;;;3.43;1.87;;;16.00;99.90;17.40;96600.00;;;;5010161;28;20208;-66
2022/06/01 00:59:24;;;;;;;3.60;1.67;;;15.90;99.90;17.50;96589.00;;;;5000376;28;20229;-67
2022/06/01 01:02:14;;;;;;;1.30;1.00;;;16.10;99.90;17.40;96594.00;;;;5010362;28;20198;-67
2022/06/01 01:05:09;;;;;;;2.80;1.33;;;15.90;99.90;17.30;96600.00;;;;5009208;28;20222;-65
2022/06/01 01:08:00;;;;;;;1.13;1.03;;;16.10;99.90;17.40;96611.00;;;;5008920;28;20281;-66
2022/06/01 01:10:49;;;;;;;1.20;0.83;;;16.10;99.90;17.50;96608.00;;;;5009388;28;20592;-64
2022/06/01 01:13:41;;;;;;;0.87;0.87;;;16.30;99.90;17.60;96619.00;;;;5012194;28;20707;-67
2022/06/01 01:16:31;;;;;;;0.67;0.67;;;16.10;99.90;17.50;96616.00;;;;5009667;28;20681;-66
2022/06/01 01:19:29;;;;;;;1.23;0.93;;;16.40;99.90;17.60;96627.00;;;;5013520;28;20210;-68
2022/06/01 01:22:37;;;;;;;5.50;0.93;;;16.20;99.90;17.60;96623.00;;;;5005549;28;20960;-68
2022/06/01 01:25:30;;;;;;;0.50;0.50;;;16.10;99.90;17.50;96623.00;;;;5006320;28;20225;-69
2022/06/01 01:28:19;;;;;;;1.20;0.93;;;16.30;99.90;17.50;96620.00;;;;4999427;28;20316;-69
2022/06/01 01:31:12;;;;;;;1.37;0.90;;;15.90;99.90;17.50;96624.00;;;;5008542;28;20206;-69
2022/06/01 01:34:00;;;;;;;2.50;0.80;;;16.00;99.90;17.50;96630.00;;;;5009049;28;20229;-68
2022/06/01 01:36:56;;;;;;;2.13;1.30;;;16.10;99.90;17.40;96628.00;;;;5009351;28;20733;-68
2022/06/01 01:39:45;;;;;;;1.63;0.73;;;16.10;99.90;17.50;96632.00;;;;5016283;28;20197;-69
2022/06/01 01:42:35;;;;;;;2.13;0.80;;;16.10;99.90;17.40;96628.00;;;;5021250;28;20204;-67
2022/06/01 01:45:29;;;;;;;0.83;0.83;;;16.30;99.90;17.40;96633.00;;;;5018797;28;20237;-67
2022/06/01 01:48:17;;;;;;;0.90;0.90;;;16.10;99.90;17.40;96623.00;;;;5008801;28;20190;-66
2022/06/01 01:51:06;;;;;;;0.67;0.67;;;16.10;99.90;17.10;96625.00;;;;5009283;28;20198;-67
2022/06/01 01:53:55;;;;;;;1.60;0.70;;;16.10;99.90;17.20;96626.00;;;;5008667;28;20229;-67
2022/06/01 01:57:11;;;;;;;0.80;0.80;;;16.00;99.90;17.20;96618.00;;;;5009466;28;20228;-67
2022/06/01 02:00:14;;;;;;;0.60;0.60;;;16.00;99.90;17.10;96630.00;;;;5008759;28;20644;-67
2022/06/01 02:03:10;;;;;;;1.33;1.07;;;15.80;99.90;17.10;96639.00;;;;5010078;28;20691;-67
2022/06/01 02:06:08;;;;;;;0.80;0.80;;;15.90;99.90;17.00;96637.00;;;;4998546;28;20221;-67
2022/06/01 02:09:06;;;;;;;1.00;0.90;;;15.90;99.90;16.90;96641.00;;;;5008416;28;20202;-67
2022/06/01 02:15:06;;;;;;;2.87;0.70;;;15.70;99.90;16.60;96625.00;;;;5008886;28;20237;-67
2022/06/01 02:18:00;;;;;;;0.83;0.80;;;15.70;99.90;16.50;96630.00;;;;5010009;28;20197;-67
2022/06/01 02:20:56;;;;;;;0.40;0.40;;;15.40;99.90;16.40;96640.00;;;;5000691;28;20210;-65
2022/06/01 02:23:47;;;;;;;0.77;0.77;;;15.30;99.90;16.50;96653.00;;;;5009070;28;20598;-67
2022/06/01 02:26:37;;;;;;;0.73;0.70;;;15.30;99.90;16.40;96644.00;;;;5009601;28;20210;-67
2022/06/01 02:29:31;;;;;;;1.33;1.03;;;15.20;99.90;16.40;96655.00;;;;5010935;28;20205;-67
2022/06/01 02:32:25;;;;;;;2.20;0.80;;;15.20;99.90;16.40;96657.00;;;;5011480;28;20206;-68
2022/06/01 02:35:18;;;;;;;2.53;0.73;;;15.10;99.90;16.40;96645.00;;;;5012765;28;20237;-67
2022/06/01 02:38:12;;;;;;;0.50;0.50;;;15.20;99.90;16.30;96653.00;;;;5011415;28;20217;-67
2022/06/01 02:41:01;;;;;;;1.10;1.00;;;14.90;99.90;16.30;96652.00;;;;5011571;28;20576;-67
2022/06/01 02:43:51;;;;;;;0.67;0.50;;;15.20;99.90;16.30;96660.00;;;;5012753;28;20241;-67
2022/06/01 02:46:39;;;;;;;0.50;0.50;;;15.20;99.90;16.30;96662.00;;;;5010345;28;20202;-66
2022/06/01 02:49:30;;;;;;;1.10;1.00;;;14.90;99.90;16.30;96660.00;;;;5001524;28;20206;-67
2022/06/01 02:52:19;;;;;;;1.20;0.80;;;14.90;99.90;16.30;96672.00;;;;5011325;28;20206;-67
2022/06/01 02:55:10;;;;;;;0.60;0.60;;;15.20;99.90;16.20;96676.00;;;;5012538;28;20245;-66
2022/06/01 02:57:59;;;;;;;0.67;0.63;;;15.30;99.90;16.20;96667.00;;;;5011942;28;20194;-67
2022/06/01 03:00:48;;;;;;;0.70;0.70;;;15.00;99.90;15.80;96683.00;;;;5011625;28;20612;-67
2022/06/01 03:03:37;;;;;;;2.33;0.90;;;15.10;99.90;15.90;96685.00;;;;5011485;28;20222;-67
2022/06/01 03:06:27;;;;;;;0.80;0.80;;;14.80;99.90;15.90;96681.00;;;;5011899;28;20213;-67
2022/06/01 03:09:25;;;;;;;0.80;0.80;;;14.90;99.90;15.90;96679.00;;;;5013298;28;20209;-67
2022/06/01 03:12:13;;;;;;;2.27;0.77;;;14.80;99.90;16.00;96685.00;;;;5011611;28;20205;-67
2022/06/01 03:15:03;;;;;;;3.60;1.23;;;14.80;99.90;16.10;96692.00;;;;5011802;28;20233;-66
2022/06/01 03:17:53;;;;;;;1.47;0.70;;;14.50;99.90;16.10;96693.00;;;;5010902;28;20194;-67
2022/06/01 03:20:42;;;;;;;1.37;0.70;;;14.70;99.90;16.10;96687.00;;;;5011156;28;20693;-68
2022/06/01 03:23:32;;;;;;;1.00;0.80;;;14.60;99.90;16.10;96692.00;;;;5010724;28;20225;-66
2022/06/01 03:26:20;;;;;;;1.07;0.67;;;14.80;99.90;16.00;96698.00;;;;5011901;28;20217;-66
2022/06/01 03:29:10;;;;;;;0.97;0.97;;;14.80;99.90;16.00;96699.00;;;;5013951;28;20574;-67
2022/06/01 03:31:59;;;;;;;1.97;0.70;;;14.90;99.90;15.30;96699.00;;;;5006818;28;20206;-67
2022/06/01 03:34:48;;;;;;;0.97;0.93;;;14.80;99.90;15.30;96702.00;;;;5011306;28;20607;-67
2022/06/01 03:37:37;;;;;;;0.87;0.87;;;14.40;99.90;15.10;96703.00;;;;5010446;28;20686;-67
2022/06/01 03:40:31;;;;;;;0.67;0.67;;;14.30;99.90;15.20;96711.00;;;;5011336;28;20602;-68
2022/06/01 03:43:20;;;;;;;1.43;0.60;;;14.40;99.90;14.90;96713.00;;;;5019233;28;20205;-67
2022/06/01 03:46:09;;;;;;;2.07;1.93;;;14.00;99.90;15.00;96716.00;;;;5014302;28;20685;-67
2022/06/01 03:48:58;;;;;;;1.07;0.80;;;14.00;99.90;15.20;96721.00;;;;5010158;28;20202;-67
2022/06/01 03:51:47;;;;;;;0.67;0.60;;;14.00;99.90;15.10;96717.00;;;;5010873;28;20213;-67
2022/06/01 03:54:36;;;;;;;0.60;0.60;;;14.00;99.90;14.90;96726.00;;;;5011608;28;20226;-66
2022/06/01 03:57:27;;;;;;;2.30;0.80;;;14.10;99.90;15.10;96730.00;;;;5010419;28;20209;-67
2022/06/01 04:00:21;;;;;;;0.70;0.70;;;13.80;99.90;15.10;96728.00;;;;5010720;28;20233;-67
2022/06/01 04:03:10;;;;;;;0.70;0.70;;;13.70;99.90;15.20;96732.00;;;;5010621;28;20214;-66
2022/06/01 04:05:59;;;;;;;0.50;0.50;;;14.10;99.90;15.00;96731.00;;;;5010527;28;20205;-67
2022/06/01 04:08:47;;;;;;;0.60;0.60;;;13.90;99.90;14.90;96742.00;;;;5007264;28;20202;-67
2022/06/01 04:11:36;;;;;;;1.90;0.80;;;14.00;99.90;15.00;96747.00;;;;5005504;28;20203;-66
2022/06/01 04:14:27;;;;;;;2.90;0.70;;;13.90;99.90;15.00;96739.00;;;;5006011;28;20222;-67
2022/06/01 04:17:16;;;;;;;0.97;0.87;;;14.00;99.90;14.70;96736.00;;;;5006858;28;20221;-67
2022/06/01 04:20:07;;;;;;;1.47;0.80;;;13.80;99.90;14.60;96735.00;;;;5009631;28;20202;-66
2022/06/01 04:22:56;;;;;;;1.97;0.60;;;13.70;99.90;14.80;96747.00;;;;5007609;28;20206;-67
2022/06/01 04:25:45;;;;;;;2.00;0.77;;;13.70;99.90;14.80;96748.00;;;;5008721;28;20681;-66
2022/06/01 04:28:34;;;;;;;1.20;1.10;;;13.50;99.90;14.30;96748.00;;;;5010356;28;20217;-67
2022/06/01 04:31:24;;;;;;;4.57;1.20;;;13.80;99.90;14.20;96751.00;;;;5009237;28;20209;-64
2022/06/01 04:34:13;;;;;;;1.23;1.10;;;13.50;99.90;14.60;96770.00;;;;5029355;22;20240;-66
2022/06/01 04:37:02;;;;;;;1.87;0.83;;;13.60;99.90;14.80;96767.00;;;;5045711;28;20232;-66
2022/06/01 04:39:51;;;;;;;1.20;0.90;;;13.70;99.90;14.60;96770.00;;;;5046156;28;20296;-66
2022/06/01 04:42:40;;;;;;;1.33;1.00;;;13.60;99.90;14.90;96773.00;;;;5045526;28;20212;-65
2022/06/01 04:45:29;;;;;;;1.37;1.27;;;13.60;99.90;15.20;96768.00;;;;5046634;28;20262;-66
2022/06/01 04:48:20;;;;;;;1.33;1.17;;;13.70;99.90;15.50;96786.00;;;;5049423;28;20200;-66
2022/06/01 04:51:10;;;;;;;0.90;0.90;;;13.90;99.90;15.70;96781.00;;;;5050151;28;20725;-66
2022/06/01 04:53:58;;;;;;;0.90;0.80;;;14.20;99.90;15.80;96778.00;;;;5050063;28;20253;-66
2022/06/01 04:56:47;;;;;;;7.10;3.20;;;14.40;99.90;16.10;96777.00;;;;5046869;28;20235;-66
2022/06/01 04:59:36;;;;;;;2.87;1.30;;;14.40;99.90;16.20;96791.00;;;;5046956;28;20204;-66
2022/06/01 05:02:24;;;;;;;4.90;1.10;;;14.40;99.90;16.30;96780.00;;;;5038240;28;20226;-66
2022/06/01 05:05:14;;;;;;;1.30;1.20;;;14.60;99.90;16.60;96778.00;;;;5048603;28;20814;-66
2022/06/01 05:08:05;;;;;;;4.63;1.50;;;14.90;99.90;16.60;96769.00;;;;5044536;28;20208;-66
2022/06/01 05:10:54;;;;;;;1.73;1.17;;;15.10;99.90;16.40;96774.00;;;;5042367;28;20204;-66
2022/06/01 05:13:42;;;;;;;3.50;1.10;;;15.20;99.90;16.30;96780.00;;;;5048365;28;20201;-65
2022/06/01 05:16:32;;;;;;;1.87;1.07;;;15.40;99.90;16.50;96779.00;;;;5044117;28;20724;-66
2022/06/01 05:19:21;;;;;;;1.83;1.37;;;15.50;99.90;16.40;96767.00;;;;5039307;28;20793;-66
2022/06/01 05:22:11;;;;;;;1.13;0.90;;;15.30;99.90;16.70;96789.00;;;;5044767;28;20208;-66
2022/06/01 05:24:59;;;;;;;1.53;1.30;;;15.30;99.90;16.40;96780.00;;;;5045755;28;20228;-66
2022/06/01 05:27:48;;;;;;;5.20;2.23;;;15.40;99.90;16.60;96787.00;;;;5049438;28;20201;-66
2022/06/01 05:30:37;;;;;;;2.10;1.53;;;15.60;99.90;16.90;96790.00;;;;5047385;28;20201;-66
2022/06/01 05:33:26;;;;;;;3.03;1.47;;;15.40;99.90;16.90;96795.00;;;;5040581;28;20212;-66
2022/06/01 05:36:17;;;;;;;1.40;1.30;;;15.70;99.90;16.90;96789.00;;;;5045602;28;20580;-66
2022/06/01 05:39:07;;;;;;;2.17;1.20;;;15.70;99.90;17.10;96799.00;;;;5047561;28;20211;-66
2022/06/01 05:41:56;;;;;;;5.37;1.60;;;15.80;99.90;17.10;96799.00;;;;5041803;28;20208;-65
2022/06/01 05:44:46;;;;;;;0.93;0.93;;;16.00;99.90;17.30;96802.00;;;;5044979;28;20757;-66
2022/06/01 05:47:35;;;;;;;2.70;1.50;;;15.90;99.90;17.50;96809.00;;;;5045542;28;20590;-66
2022/06/01 05:50:24;;;;;;;2.60;1.23;;;16.20;99.90;17.70;96812.00;;;;5041997;28;20204;-66
2022/06/01 05:53:13;;;;;;;1.93;0.83;;;16.10;99.90;17.50;96801.00;;;;5047921;28;20228;-66
2022/06/01 05:56:04;;;;;;;2.73;1.37;;;16.30;99.90;17.50;96805.00;;;;5045051;28;20246;-66
2022/06/01 05:58:53;;;;;;;1.53;0.90;;;16.20;99.90;18.00;96811.00;;;;5040193;28;20205;-66
2022/06/01 06:01:42;;;;;;;2.10;1.33;;;16.40;99.90;18.40;96818.00;;;;5046695;28;20197;-65
2022/06/01 06:04:30;;;;;;;1.70;1.27;;;16.70;99.90;18.70;96819.00;;;;5050845;28;20224;-66
2022/06/01 06:07:19;;;;;;;14.70;1.60;;;16.80;99.90;18.70;96818.00;;;;5052696;28;20714;-66
2022/06/01 06:10:09;;;;;;;2.37;1.30;;;17.10;99.90;19.10;96817.00;;;;5052801;28;20212;-66
2022/06/01 06:12:59;;;;;;;3.80;1.40;;;17.10;99.90;19.30;96819.00;;;;5053281;28;20204;-66
2022/06/01 06:15:48;;;;;;;5.77;1.53;;;17.50;99.90;19.30;96826.00;;;;5051701;28;20223;-66
2022/06/01 06:18:37;;;;;;;2.60;1.27;;;17.60;99.90;19.50;96824.00;;;;5050045;28;20196;-66
2022/06/01 06:21:28;;;;;;;4.13;1.30;;;17.40;99.90;19.60;96830.00;;;;5050627;28;20207;-66
2022/06/01 06:24:20;;;;;;;2.97;1.23;;;17.90;99.90;19.70;96830.00;;;;5049306;28;20704;-66
2022/06/01 06:27:09;;;;;;;2.37;1.23;;;18.00;99.90;19.80;96822.00;;;;5049524;28;20219;-67
2022/06/01 06:29:59;;;;;;;3.37;1.10;;;18.00;99.90;20.10;96825.00;;;;5044655;28;20207;-66
2022/06/01 06:32:48;;;;;;;2.07;1.30;;;18.30;99.90;20.00;96828.00;;;;5052229;28;20668;-66
2022/06/01 06:35:37;;;;;;;7.97;1.67;;;18.10;99.90;20.20;96827.00;;;;5051356;28;20228;-66
2022/06/01 06:38:28;;;;;;;2.10;1.30;;;18.40;99.90;20.40;96832.00;;;;5051308;28;20224;-65
2022/06/01 06:41:18;;;;;;;3.83;1.57;;;18.50;99.90;20.50;96836.00;;;;5048880;28;20684;-66
2022/06/01 06:44:07;;;;;;;2.77;1.33;;;18.80;99.90;20.70;96835.00;;;;5050220;28;20212;-66
2022/06/01 06:46:58;;;;;;;3.63;1.30;;;18.60;99.90;20.80;96823.00;;;;5045083;28;20675;-65
2022/06/01 06:49:46;;;;;;;3.33;1.20;;;18.80;99.90;20.90;96832.00;;;;5050612;28;20193;-66
2022/06/01 06:52:35;;;;;;;2.37;1.90;;;19.10;99.90;21.00;96833.00;;;;5053028;28;20896;-66
2022/06/01 06:55:24;;;;;;;3.43;1.20;;;19.20;99.90;21.10;96829.00;;;;5051619;28;20216;-66
2022/06/01 06:58:13;;;;;;;4.60;1.23;;;19.20;99.90;21.30;96831.00;;;;5047558;28;20224;-65
2022/06/01 07:01:02;;;;;;;1.30;1.20;;;19.50;99.90;21.40;96830.00;;;;5050636;28;20200;-66
2022/06/01 07:03:52;;;;;;;1.30;0.93;;;19.50;99.90;21.60;96834.00;;;;5044770;28;20205;-65
2022/06/01 07:06:43;;;;;;;1.30;1.20;;;19.80;99.90;21.60;96832.00;;;;5047749;28;20208;-66
2022/06/01 07:09:31;;;;;;;1.73;1.63;;;20.10;99.90;21.70;96831.00;;;;5046678;28;20228;-66
2022/06/01 07:12:20;;;;;;;2.37;1.30;;;19.80;99.90;22.00;96834.00;;;;5049778;28;20201;-66
2022/06/01 07:15:11;;;;;;;1.17;1.07;;;20.20;99.90;22.20;96838.00;;;;5051571;28;20231;-66
2022/06/01 07:18:00;;;;;;;3.53;0.97;;;20.20;99.90;22.20;96830.00;;;;5051479;28;20233;-66
2022/06/01 07:20:50;;;;;;;1.00;0.90;;;20.60;99.90;22.40;96825.00;;;;5051004;28;20208;-66
2022/06/01 07:23:39;;;;;;;1.17;1.07;;;20.50;99.90;22.60;96826.00;;;;5051262;28;20192;-66
2022/06/01 07:26:32;;;;;;;2.27;2.07;;;20.50;99.90;22.20;96819.00;;;;5041191;28;20213;-66
2022/06/01 07:29:21;;;;;;;1.27;0.87;;;20.70;99.90;22.70;96830.00;;;;5051489;28;20292;-66
2022/06/01 07:32:10;;;;;;;0.90;0.90;;;20.80;99.90;22.80;96835.00;;;;5051544;28;20229;-66
2022/06/01 07:34:59;;;;;;;1.20;0.80;;;20.90;99.90;22.60;96826.00;;;;5051569;28;20224;-66
2022/06/01 07:44:01;;;;;;;0.60;0.60;;;21.10;99.90;22.80;96826.00;;;;5049992;28;20220;-66
2022/06/01 07:46:50;;;;;;;1.53;1.00;;;21.10;99.90;23.00;96826.00;;;;5048530;28;20207;-66
2022/06/01 07:49:41;;;;;;;1.10;0.60;;;21.30;99.90;23.30;96829.00;;;;5049295;28;20200;-66
2022/06/01 07:52:51;;;;;;;0.93;0.77;;;21.30;99.90;23.60;96826.00;;;;5050871;28;20196;-66
2022/06/01 07:55:41;;;;;;;2.50;0.80;;;21.30;99.90;23.20;96830.00;;;;5049351;28;20240;-66
2022/06/01 07:58:29;;;;;;;0.83;0.77;;;21.50;98.70;23.40;96828.00;;;;5049088;28;20228;-66
2022/06/01 08:01:21;;;;;;;0.80;0.80;;;21.50;99.90;23.00;96827.00;;;;5046103;28;20201;-66
2022/06/01 08:04:10;;;;;;;3.63;0.90;;;21.80;98.90;22.70;96823.00;;;;5051282;28;20217;-65
2022/06/01 08:06:59;;;;;;;0.60;0.60;;;21.70;98.80;23.50;96826.00;;;;5046431;28;20245;-66
2022/06/01 08:09:49;;;;;;;2.00;0.80;;;21.50;99.90;23.90;96829.00;;;;5049554;28;20212;-66
2022/06/01 08:15:47;;;;;;;0.50;0.50;;;22.00;98.30;24.00;96821.00;;;;5050382;28;20602;-66
2022/06/01 08:18:36;;;;;;;3.67;0.77;;;22.00;99.30;24.40;96821.00;;;;5034751;28;20322;-66
2022/06/01 08:21:25;;;;;;;3.27;1.03;;;22.20;99.90;24.50;96825.00;;;;5051324;28;20204;-66
2022/06/01 08:24:14;;;;;;;2.90;0.93;;;22.30;98.80;24.40;96832.00;;;;5050495;28;20224;-66
2022/06/01 08:27:05;;;;;;;0.70;0.70;;;22.50;98.20;24.30;96824.00;;;;5049843;28;20212;-66
2022/06/01 08:29:54;;;;;;;1.20;0.90;;;22.60;96.00;24.80;96827.00;;;;5050043;28;20216;-65
2022/06/01 08:32:44;;;;;;;2.00;0.97;;;22.70;96.30;24.70;96827.00;;;;5049972;28;20205;-66
2022/06/01 08:35:35;;;;;;;1.57;0.87;;;22.90;95.90;25.00;96829.00;;;;5046816;28;20228;-66
2022/06/01 08:38:23;;;;;;;2.47;1.23;;;23.10;96.30;25.20;96825.00;;;;5050747;28;20217;-66
2022/06/01 08:41:14;;;;;;;1.10;0.73;;;23.30;96.10;25.30;96838.00;;;;5050035;28;20216;-66
2022/06/01 08:44:17;;;;;;;0.73;0.67;;;23.30;95.60;25.30;96827.00;;;;5049355;28;20606;-66
2022/06/01 08:47:09;;;;;;;4.10;1.00;;;23.40;94.40;25.70;96837.00;;;;5049870;28;20211;-66
2022/06/01 08:50:02;;;;;;;1.67;0.90;;;23.50;94.60;25.00;96830.00;;;;5048917;28;20215;-66
2022/06/01 08:52:51;;;;;;;0.63;0.60;;;23.60;92.40;24.30;96831.00;;;;5051045;28;20691;-65
2022/06/01 08:55:48;;;;;;;1.00;0.90;;;23.40;92.00;24.20;96833.00;;;;5050338;28;20224;-66
2022/06/01 08:58:47;;;;;;;1.27;0.97;;;23.30;92.40;25.10;96830.00;;;;5048633;28;20224;-65
2022/06/01 09:01:45;;;;;;;1.30;0.80;;;23.10;91.80;25.80;96831.00;;;;5048817;28;20200;-65
2022/06/01 09:04:44;;;;;;;5.33;0.80;;;23.50;92.90;25.10;96829.00;;;;5050132;28;20224;-65
2022/06/01 09:07:40;;;;;;;1.00;0.90;;;23.80;90.20;25.80;96834.00;;;;5049794;28;20196;-66
2022/06/01 09:10:46;;;;;;;0.80;0.80;;;24.00;90.30;26.00;96840.00;;;;5050191;28;20192;-66
2022/06/01 09:13:51;;;;;;;0.60;0.60;;;24.10;91.80;25.70;96845.00;;;;5050354;28;20201;-66
2022/06/01 09:16:45;;;;;;;0.93;0.87;;;24.00;89.70;26.20;96839.00;;;;5050195;28;20196;-66
2022/06/01 09:22:49;;;;;;;0.63;0.63;;;24.30;89.40;26.70;96834.00;;;;5049881;28;20199;-66
2022/06/01 09:25:38;;;;;;;0.80;0.77;;;24.40;88.40;26.50;96839.00;;;;5048907;28;20224;-66
2022/06/01 09:28:29;;;;;;;0.70;0.70;;;24.60;84.80;27.10;96838.00;;;;5048847;28;20282;-66
2022/06/01 09:31:33;;;;;;;0.57;0.57;;;24.70;83.50;27.20;96833.00;;;;5049334;28;20213;-66
2022/06/01 09:34:31;;;;;;;1.23;0.90;;;25.00;84.00;27.50;96826.00;;;;5045433;28;20240;-66
2022/06/01 09:37:26;;;;;;;0.60;0.60;;;25.10;83.30;27.50;96838.00;;;;5037873;28;20235;-67
2022/06/01 09:40:24;;;;;;;2.23;1.00;;;25.30;81.80;27.40;96824.00;;;;5047760;28;20203;-66
2022/06/01 09:43:24;;;;;;;1.10;1.00;;;25.60;80.80;27.80;96824.00;;;;5047896;28;20209;-66
2022/06/01 09:46:32;;;;;;;1.20;1.10;;;25.80;80.70;28.00;96831.00;;;;5047742;28;20634;-66
2022/06/01 09:49:26;;;;;;;1.20;1.10;;;25.80;78.90;28.20;96825.00;;;;5044266;28;20708;-66
2022/06/01 09:52:27;;;;;;;1.47;1.13;;;26.10;81.50;27.90;96824.00;;;;5048675;28;20205;-66
2022/06/01 09:55:20;;;;;;;1.27;1.17;;;26.10;80.40;27.90;96824.00;;;;5047867;28;20218;-66
2022/06/01 10:06:05;;;;;;;2.40;1.73;;;26.10;78.20;27.90;96816.00;;;;5042993;28;20227;-66
2022/06/01 10:07:38;;;;;;;2.73;1.70;;;26.30;86.30;28.10;96829.00;;;;5047823;28;20207;-65
2022/06/01 10:10:28;;;;;;;2.40;1.67;;;26.50;84.90;26.60;96820.00;;;;5050078;28;20222;-65
2022/06/01 10:13:31;;;;;;;1.93;1.73;;;26.10;85.50;26.50;96814.00;;;;5045360;28;20203;-64
2022/06/01 10:16:29;;;;;;;1.93;1.83;;;25.90;83.70;25.40;96847.00;;;;5044464;28;20200;-65
2022/06/01 10:19:27;;;;;;;1.77;1.53;;;25.40;84.00;24.90;96794.00;;;;5043055;28;20232;-64
2022/06/01 10:22:25;;;;;;;1.43;1.33;;;24.70;84.50;26.80;96811.00;;;;5047792;28;20212;-65
2022/06/01 10:25:19;;;;;;;2.10;1.50;;;24.90;86.90;27.80;96809.00;;;;5047422;28;20221;-66
2022/06/01 10:28:15;;;;;;;1.83;1.67;;;25.00;88.10;28.50;96820.00;;;;5047081;28;20196;-66
2022/06/01 10:31:29;;;;;;;2.30;1.67;;;25.50;89.30;29.00;96803.00;;;;5048084;28;20204;-66
2022/06/01 10:34:22;;;;;;;2.13;2.00;;;26.20;87.40;29.00;96806.00;;;;5030479;23;1103159;-67
2022/06/01 10:37:25;;;;;;;2.03;1.80;;;26.60;86.50;28.80;96810.00;;;;5021296;28;20212;-66
2022/06/01 10:40:21;;;;;;;1.60;1.47;;;26.70;85.00;28.90;96808.00;;;;5015045;28;20251;-66
2022/06/01 10:43:21;;;;;;;3.10;1.80;;;26.90;84.40;28.90;96802.00;;;;5029441;28;20317;-64
2022/06/01 10:46:31;;;;;;;2.30;2.07;;;27.10;79.80;29.40;96797.00;;;;5011128;28;20216;-64
2022/06/01 10:49:41;;;;;;;2.90;1.23;;;27.10;79.20;29.10;96798.00;;;;5012008;28;20200;-66
2022/06/01 10:52:36;;;;;;;2.33;1.57;;;27.30;80.10;29.40;96799.00;;;;5011557;28;20215;-66
2022/06/01 10:55:29;;;;;;;2.43;1.60;;;27.50;78.00;27.20;96787.00;;;;5012614;28;20226;-65
2022/06/01 10:58:22;;;;;;;2.97;1.70;;;27.00;73.30;26.90;96784.00;;;;5005418;28;20209;-65
2022/06/01 11:01:22;;;;;;;2.37;1.70;;;26.50;74.70;27.40;96781.00;;;;5006825;28;20217;-67
2022/06/01 11:04:47;;;;;;;4.83;1.60;;;26.10;75.60;29.50;96797.00;;;;5011644;28;20731;-65
2022/06/01 11:08:01;;;;;;;2.20;1.70;;;26.40;78.50;29.10;96781.00;;;;5009541;28;20585;-66
2022/06/01 11:11:04;;;;;;;2.23;1.40;;;26.90;71.40;27.80;96774.00;;;;5011665;28;20201;-67
2022/06/01 11:14:09;;;;;;;2.20;1.50;;;26.80;70.80;28.20;96766.00;;;;5011385;28;20211;-66
2022/06/01 11:17:01;;;;;;;2.33;1.40;;;26.60;70.90;29.10;96773.00;;;;5007584;28;20741;-65
2022/06/01 11:20:04;;;;;;;1.67;1.00;;;27.00;72.70;29.10;96768.00;;;;5009467;28;20237;-65
2022/06/01 11:23:16;;;;;;;1.40;1.10;;;27.20;71.80;28.90;96774.00;;;;5012303;28;20224;-65
2022/06/01 11:26:15;;;;;;;1.70;1.23;;;27.10;67.70;28.20;96769.00;;;;5011567;28;20223;-65
2022/06/01 11:29:29;;;;;;;1.40;1.30;;;27.30;67.60;27.80;96768.00;;;;5010804;28;20237;-67
2022/06/01 11:32:28;;;;;;;2.10;1.40;;;26.80;69.00;26.60;96763.00;;;;5010664;28;20214;-65
2022/06/01 11:35:28;;;;;;;1.20;1.10;;;26.40;68.50;28.00;96765.00;;;;5010767;28;20243;-66
2022/06/01 11:38:24;;;;;;;2.03;1.30;;;26.10;70.70;27.20;96766.00;;;;5011121;28;20586;-66
2022/06/01 11:41:19;;;;;;;3.33;1.93;;;26.20;69.60;29.50;96762.00;;;;5011285;28;20216;-66
2022/06/01 11:44:23;;;;;;;0.97;0.97;;;26.60;74.10;29.30;96768.00;;;;5007192;28;20206;-65
2022/06/01 11:47:16;;;;;;;1.47;1.37;;;26.90;73.40;29.50;96759.00;;;;5005364;28;20207;-66
2022/06/01 11:50:20;;;;;;;1.83;1.40;;;27.40;71.60;30.50;96764.00;;;;4998354;28;20207;-68
2022/06/01 11:53:13;;;;;;;1.23;1.10;;;27.90;70.70;31.60;96749.00;;;;5011537;28;20212;-68
2022/06/01 11:56:24;;;;;;;1.83;1.20;;;28.50;70.90;31.90;96744.00;;;;5010940;28;20227;-66
2022/06/01 11:59:23;;;;;;;2.73;1.73;;;28.90;66.80;30.60;96744.00;;;;5008743;28;20236;-65
2022/06/01 12:02:40;;;;;;;1.40;1.27;;;29.30;65.50;30.60;96746.00;;;;5008990;28;20204;-67
2022/06/01 12:05:33;;;;;;;1.40;1.27;;;29.20;64.20;31.70;96740.00;;;;5010444;28;20227;-67
2022/06/01 12:08:30;;;;;;;1.70;1.27;;;29.20;66.10;33.10;96735.00;;;;5004711;28;21125;-67
2022/06/01 12:11:45;;;;;;;1.30;1.20;;;29.70;66.80;32.90;96735.00;;;;5006821;28;20212;-67
2022/06/01 12:14:39;;;;;;;2.05;1.05;;;30.10;65.90;33.30;96719.00;;;;5008111;28;20230;-68
2022/06/01 12:17:37;;;;;;;1.33;1.23;;;;;33.70;96715.00;;;;5007846;28;20219;-67
2022/06/01 12:20:48;;;;;;;1.55;1.38;;;30.90;57.80;34.10;96722.00;;;;5011343;28;20305;-67
2022/06/01 12:30:50;;;;;;;1.30;1.20;;;30.70;54.70;30.60;96794.00;;;;5008626;28;20220;-67
2022/06/01 12:34:09;;;;;;;2.35;1.08;;;30.10;55.50;30.60;96795.00;;;;5005100;28;20204;-67
2022/06/01 12:37:17;;;;;;;1.95;1.42;;;29.50;57.20;29.50;96788.00;;;;5003013;28;20204;-66
2022/06/01 12:40:13;;;;;;;4.07;1.60;;;29.00;56.80;29.30;96788.00;;;;5004932;28;20235;-68
2022/06/01 12:43:13;;;;;;;2.00;1.10;;;28.50;57.50;29.60;96795.00;;;;5006636;28;20200;-67
2022/06/01 12:46:01;;;;;;;3.33;1.20;;;28.50;57.20;29.10;96782.00;;;;5009152;28;20228;-64
2022/06/01 12:48:50;;;;;;;1.75;1.52;;;28.10;57.60;30.00;96785.00;;;;5003954;28;20255;-66
2022/06/01 12:51:43;;;;;;;2.93;1.20;;;28.00;58.40;29.70;96701.00;;;;5006677;28;20730;-65
2022/06/01 12:54:34;;;;;;;1.60;1.50;;;28.00;58.50;31.30;96699.00;;;;5005671;28;20224;-65
2022/06/01 12:57:28;;;;;;;1.27;1.08;;;28.30;59.80;31.20;96782.00;;;;5006055;28;20205;-65
2022/06/01 13:00:24;;;;;;;2.83;1.27;;;28.70;57.70;27.00;96782.00;;;;5005776;28;20223;-65
2022/06/01 13:03:15;;;;;;;2.53;1.53;;;27.90;58.10;27.20;96754.00;;;;5005943;28;20679;-66
2022/06/01 13:06:10;;;;;;;3.80;1.40;;;27.20;58.30;30.60;96696.00;;;;5008080;28;20226;-66
2022/06/01 13:09:02;;;;;;;4.30;1.63;;;27.50;60.80;32.00;96690.00;;;;5005311;28;20191;-67
2022/06/01 13:11:59;;;;;;;3.33;1.50;;;28.20;62.40;32.50;96701.00;;;;5006626;28;20213;-67
2022/06/01 13:14:47;;;;;;;1.83;1.40;;;29.00;61.20;32.60;96700.00;;;;5006714;28;20229;-67
2022/06/01 13:17:51;;;;;;;1.10;1.10;;;29.50;59.90;32.80;96690.00;;;;5006142;28;20212;-67
2022/06/01 13:20:42;;;;;;;1.65;1.35;;;29.90;59.10;33.40;96698.00;;;;5008420;28;20231;-67